Time;durP1;ratioP1;P1;durP2;ratioP2;P2;SDS_P1;SDS_P2;PMS_P1;PMS_P2;Temp;Humidity;BMP_temperature;BMP_pressure;BME280_temperature;BME280_humidity;BME280_pressure;Samples;Min_cycle;Max_cycle;Signal;HPM_P1;HPM_P2
2022/07/01 00:00:10;;;;;;;24.88;17.27;;;22.70;59.90;;;;;;5101411;28;20473;-38
2022/07/01 00:02:36;;;;;;;54.90;33.45;;;22.70;60.50;;;;;;5083590;28;20028;-48
2022/07/01 00:05:02;;;;;;;40.00;25.83;;;22.70;60.60;;;;;;5083916;28;20032;-48
2022/07/01 00:07:28;;;;;;;57.15;31.95;;;22.70;61.50;;;;;;5084717;28;20744;-47
2022/07/01 00:09:54;;;;;;;50.47;27.98;;;22.60;62.30;;;;;;5084079;28;20027;-51
2022/07/01 00:12:21;;;;;;;42.35;27.48;;;22.60;61.80;;;;;;5083356;28;20029;-47
2022/07/01 00:14:47;;;;;;;37.50;25.33;;;22.60;61.80;;;;;;5082695;28;20470;-46
2022/07/01 00:17:13;;;;;;;34.97;23.80;;;22.60;62.20;;;;;;5083284;28;20036;-47
2022/07/01 00:19:39;;;;;;;35.67;23.85;;;22.60;62.20;;;;;;5082927;28;20088;-47
2022/07/01 00:22:05;;;;;;;33.35;22.60;;;22.60;62.30;;;;;;5085423;28;20024;-48
2022/07/01 00:24:31;;;;;;;29.48;20.00;;;22.60;62.60;;;;;;5082558;28;20120;-47
2022/07/01 00:26:57;;;;;;;30.42;20.58;;;22.60;62.50;;;;;;5082580;28;20032;-49
2022/07/01 00:29:23;;;;;;;26.65;17.00;;;22.60;62.70;;;;;;5080590;28;20024;-48
2022/07/01 00:31:49;;;;;;;30.13;17.25;;;22.60;62.40;;;;;;5083783;28;20021;-46
2022/07/01 00:34:16;;;;;;;21.77;14.82;;;22.60;63.30;;;;;;5077248;28;20040;-48
2022/07/01 00:36:42;;;;;;;21.98;14.50;;;22.60;63.00;;;;;;5083732;28;20024;-48
2022/07/01 00:39:08;;;;;;;20.73;13.70;;;22.60;62.60;;;;;;5085086;28;20063;-47
2022/07/01 00:41:34;;;;;;;16.55;11.55;;;22.60;62.60;;;;;;5085038;28;20033;-50
2022/07/01 00:44:00;;;;;;;16.65;10.35;;;22.60;61.90;;;;;;5082812;28;20059;-46
2022/07/01 00:46:26;;;;;;;14.52;9.43;;;22.60;61.50;;;;;;5080116;28;20039;-54
2022/07/01 00:48:57;;;;;;;14.63;10.40;;;22.60;61.10;;;;;;5084757;28;20032;-57
2022/07/01 00:51:23;;;;;;;18.23;8.85;;;22.60;61.50;;;;;;5082748;28;20051;-55
2022/07/01 00:53:49;;;;;;;12.52;8.45;;;22.60;60.80;;;;;;5078529;28;20043;-51
2022/07/01 00:56:15;;;;;;;12.45;7.82;;;22.60;60.70;;;;;;5081785;28;20095;-55
2022/07/01 00:58:41;;;;;;;10.07;6.47;;;22.60;60.80;;;;;;5079308;28;20036;-52
2022/07/01 01:01:07;;;;;;;8.00;6.07;;;22.60;60.20;;;;;;5084858;28;20028;-52
2022/07/01 01:03:33;;;;;;;11.20;6.40;;;22.60;59.70;;;;;;5082959;28;20055;-47
2022/07/01 01:05:59;;;;;;;14.63;6.00;;;22.60;59.40;;;;;;5079755;28;20401;-48
2022/07/01 01:08:25;;;;;;;9.40;5.35;;;22.60;59.80;;;;;;5078138;28;20112;-47
2022/07/01 01:10:53;;;;;;;8.07;4.60;;;22.60;59.60;;;;;;5081738;28;20032;-49
2022/07/01 01:13:19;;;;;;;8.73;4.40;;;22.60;59.60;;;;;;5087520;28;20449;-47
2022/07/01 01:15:45;;;;;;;8.65;4.20;;;22.50;59.70;;;;;;5079924;28;20060;-48
2022/07/01 01:18:11;;;;;;;5.80;4.40;;;22.50;59.80;;;;;;5083443;28;20031;-45
2022/07/01 01:20:37;;;;;;;6.30;3.63;;;22.50;59.80;;;;;;5101348;28;20047;-46
2022/07/01 01:23:04;;;;;;;4.65;3.90;;;22.50;59.80;;;;;;5079177;28;20029;-47
2022/07/01 01:25:33;;;;;;;4.53;3.85;;;22.50;60.40;;;;;;5079678;28;20093;-45
2022/07/01 01:28:00;;;;;;;7.65;3.53;;;22.50;60.90;;;;;;5083089;28;20052;-48
2022/07/01 01:30:26;;;;;;;9.35;3.63;;;22.50;61.10;;;;;;5078735;28;20020;-46
2022/07/01 01:32:52;;;;;;;5.47;3.03;;;22.50;62.20;;;;;;5079373;28;20044;-50
2022/07/01 01:35:19;;;;;;;4.20;3.03;;;22.50;60.70;;;;;;5081552;28;20024;-45
2022/07/01 01:37:46;;;;;;;6.38;3.28;;;22.50;61.30;;;;;;5077250;28;20024;-44
2022/07/01 01:40:15;;;;;;;5.20;3.30;;;22.50;61.90;;;;;;5086892;28;20024;-45
2022/07/01 01:42:43;;;;;;;5.00;2.65;;;22.50;62.10;;;;;;5072976;28;20048;-45
2022/07/01 01:45:10;;;;;;;6.82;2.70;;;22.50;62.00;;;;;;5090984;28;20032;-45
2022/07/01 01:47:36;;;;;;;4.30;2.75;;;22.40;62.00;;;;;;5080447;28;20064;-45
2022/07/01 01:50:04;;;;;;;4.72;2.70;;;22.40;61.90;;;;;;5085217;28;20040;-46
2022/07/01 01:52:30;;;;;;;3.70;2.58;;;22.40;61.90;;;;;;5068838;28;20033;-45
2022/07/01 01:54:56;;;;;;;2.42;1.83;;;22.40;62.00;;;;;;5070012;28;20051;-45
2022/07/01 01:57:22;;;;;;;2.55;1.67;;;22.40;61.80;;;;;;5072514;28;20021;-47
2022/07/01 01:59:48;;;;;;;4.00;2.10;;;22.40;61.80;;;;;;5073503;28;20036;-45
2022/07/01 02:02:15;;;;;;;2.63;1.90;;;22.40;61.80;;;;;;5074666;28;20024;-46
2022/07/01 02:04:41;;;;;;;2.10;1.90;;;22.40;61.70;;;;;;5072687;28;20025;-46
2022/07/01 02:07:07;;;;;;;1.98;1.60;;;22.40;61.70;;;;;;5073266;28;20036;-47
2022/07/01 02:09:33;;;;;;;8.40;5.72;;;22.40;61.80;;;;;;5074298;28;20032;-45
2022/07/01 02:11:59;;;;;;;24.58;14.18;;;22.40;61.60;;;;;;5076228;28;20032;-45
2022/07/01 02:14:25;;;;;;;35.10;22.02;;;22.30;61.60;;;;;;5074415;28;20032;-48
2022/07/01 02:16:51;;;;;;;45.45;28.38;;;22.40;61.90;;;;;;5076812;28;20028;-45
2022/07/01 02:19:18;;;;;;;49.67;29.30;;;22.30;61.60;;;;;;5072140;28;20508;-46
2022/07/01 02:21:44;;;;;;;45.65;27.38;;;22.30;61.80;;;;;;5069315;28;20036;-48
2022/07/01 02:24:10;;;;;;;50.20;30.98;;;22.30;61.90;;;;;;5068453;28;20025;-45
2022/07/01 02:26:36;;;;;;;55.90;33.00;;;22.30;62.00;;;;;;5065226;28;20046;-47
2022/07/01 02:29:02;;;;;;;54.50;32.95;;;22.30;62.30;;;;;;5065944;28;20230;-48
2022/07/01 02:31:28;;;;;;;52.55;31.20;;;22.30;62.50;;;;;;5065334;28;20029;-44
2022/07/01 02:33:54;;;;;;;49.55;29.35;;;22.20;62.90;;;;;;5064721;28;20048;-45
2022/07/01 02:36:20;;;;;;;49.63;29.05;;;22.20;63.00;;;;;;5066738;28;20071;-45
2022/07/01 02:38:46;;;;;;;43.58;28.08;;;22.20;62.50;;;;;;5064457;28;20037;-45
2022/07/01 02:41:13;;;;;;;44.00;28.25;;;22.20;62.30;;;;;;5066074;28;20032;-43
2022/07/01 02:43:39;;;;;;;40.50;25.38;;;22.20;62.30;;;;;;5067326;28;20056;-44
2022/07/01 02:46:05;;;;;;;39.83;24.75;;;22.20;62.30;;;;;;5067567;28;20037;-46
2022/07/01 02:48:31;;;;;;;37.17;23.58;;;22.20;62.40;;;;;;5064924;28;20113;-44
2022/07/01 02:50:57;;;;;;;35.30;22.83;;;22.20;62.70;;;;;;5066277;28;20032;-47
2022/07/01 02:53:23;;;;;;;33.60;21.75;;;22.20;62.80;;;;;;5069407;28;20063;-47
2022/07/01 02:55:49;;;;;;;34.67;21.63;;;22.20;62.90;;;;;;5071961;28;20033;-48
2022/07/01 02:58:16;;;;;;;31.08;19.83;;;22.20;63.00;;;;;;5068632;28;20036;-46
2022/07/01 03:00:42;;;;;;;29.58;18.42;;;22.10;63.20;;;;;;5070652;28;20055;-46
2022/07/01 03:03:08;;;;;;;28.60;18.30;;;22.10;63.60;;;;;;5067537;28;20032;-45
2022/07/01 03:05:34;;;;;;;28.23;17.88;;;22.10;63.90;;;;;;5060372;28;20033;-45
2022/07/01 03:08:00;;;;;;;23.88;15.98;;;22.10;63.80;;;;;;5062340;28;20075;-46
2022/07/01 03:10:26;;;;;;;23.48;15.45;;;22.10;63.40;;;;;;5061943;28;20032;-46
2022/07/01 03:12:53;;;;;;;23.52;14.38;;;22.00;63.20;;;;;;5025285;28;20051;-45
2022/07/01 03:15:19;;;;;;;21.20;13.43;;;22.10;62.80;;;;;;5061375;28;20035;-46
2022/07/01 03:17:46;;;;;;;19.85;12.70;;;22.00;62.80;;;;;;5060166;28;20706;-47
2022/07/01 03:20:16;;;;;;;17.98;11.80;;;22.00;62.80;;;;;;5058325;28;20107;-46
2022/07/01 03:22:44;;;;;;;18.02;11.65;;;22.00;63.00;;;;;;5059980;28;20067;-46
2022/07/01 03:25:10;;;;;;;18.40;11.75;;;22.00;63.70;;;;;;5060715;28;20025;-49
2022/07/01 03:27:36;;;;;;;15.88;10.43;;;22.00;63.80;;;;;;5064494;28;20033;-49
2022/07/01 03:30:04;;;;;;;15.48;10.35;;;21.90;63.90;;;;;;5068367;28;20028;-51
2022/07/01 03:32:30;;;;;;;14.85;10.00;;;21.90;64.00;;;;;;5066692;28;20036;-49
2022/07/01 03:34:56;;;;;;;14.27;9.80;;;21.90;63.80;;;;;;5076367;28;20032;-47
2022/07/01 03:37:22;;;;;;;14.32;9.50;;;21.90;63.80;;;;;;5080481;28;20334;-46
2022/07/01 03:39:49;;;;;;;12.37;8.77;;;21.90;63.60;;;;;;5077348;28;20117;-49
2022/07/01 03:42:16;;;;;;;11.83;8.50;;;21.90;63.90;;;;;;5078928;28;20332;-46
2022/07/01 03:44:44;;;;;;;11.05;7.90;;;21.90;64.10;;;;;;5078616;28;20321;-48
2022/07/01 03:47:10;;;;;;;11.18;7.85;;;21.90;64.20;;;;;;5071186;28;20021;-46
2022/07/01 03:49:36;;;;;;;10.68;7.70;;;21.80;64.20;;;;;;5079844;28;20556;-46
2022/07/01 03:52:03;;;;;;;10.98;7.35;;;21.90;64.10;;;;;;5077356;28;20060;-46
2022/07/01 03:54:30;;;;;;;9.38;6.78;;;21.90;63.80;;;;;;5063750;28;20040;-47
2022/07/01 03:57:00;;;;;;;10.03;6.73;;;21.80;63.50;;;;;;5076751;28;20037;-48
2022/07/01 03:59:27;;;;;;;9.55;6.50;;;21.80;64.00;;;;;;5073302;28;20553;-48
2022/07/01 04:01:56;;;;;;;9.57;6.70;;;21.80;64.20;;;;;;5075148;28;20140;-47
2022/07/01 04:04:26;;;;;;;7.85;5.85;;;21.80;64.20;;;;;;5076785;28;20577;-45
2022/07/01 04:06:57;;;;;;;9.88;5.95;;;21.80;64.30;;;;;;5078775;28;20123;-46
2022/07/01 04:09:23;;;;;;;7.93;5.70;;;21.80;64.40;;;;;;5075492;28;20028;-48
2022/07/01 04:11:49;;;;;;;7.47;5.03;;;21.80;64.50;;;;;;5080768;28;20552;-50
2022/07/01 04:14:15;;;;;;;7.75;5.40;;;21.80;64.50;;;;;;5078520;28;20036;-50
2022/07/01 04:16:42;;;;;;;6.78;4.68;;;21.80;64.60;;;;;;5077494;28;20055;-47
2022/07/01 04:19:12;;;;;;;6.43;5.13;;;21.80;64.60;;;;;;5076872;28;20040;-46
2022/07/01 04:24:24;;;;;;;6.45;4.78;;;21.80;64.90;;;;;;5074896;28;20028;-52
2022/07/01 04:26:50;;;;;;;6.53;4.47;;;21.80;64.90;;;;;;5075773;28;20034;-47
2022/07/01 04:29:17;;;;;;;5.43;4.07;;;21.80;65.00;;;;;;5071511;28;20036;-46
2022/07/01 04:31:43;;;;;;;5.32;3.88;;;21.80;65.30;;;;;;5073573;28;20052;-48
2022/07/01 04:34:11;;;;;;;5.10;3.90;;;21.80;65.30;;;;;;5076988;28;20486;-47
2022/07/01 04:36:37;;;;;;;5.25;3.92;;;21.80;65.30;;;;;;5073856;28;20037;-47
2022/07/01 04:39:04;;;;;;;4.70;3.43;;;21.80;65.30;;;;;;5075306;28;20032;-50
2022/07/01 04:44:16;;;;;;;4.07;3.20;;;21.80;65.60;;;;;;5078502;28;20079;-46
2022/07/01 04:46:42;;;;;;;4.55;3.63;;;21.80;65.30;;;;;;5074887;28;20032;-50
2022/07/01 04:49:08;;;;;;;3.90;3.10;;;21.90;65.30;;;;;;5078381;28;20047;-46
2022/07/01 04:51:34;;;;;;;4.20;3.47;;;21.90;65.40;;;;;;5077526;28;20100;-48
2022/07/01 04:54:04;;;;;;;3.95;3.08;;;21.80;65.40;;;;;;5072054;28;20036;-51
2022/07/01 04:56:30;;;;;;;3.03;2.67;;;21.90;65.50;;;;;;5074120;28;20049;-49
2022/07/01 04:58:57;;;;;;;3.95;3.28;;;21.90;65.50;;;;;;5071116;28;20058;-46
2022/07/01 05:01:23;;;;;;;4.05;3.17;;;21.80;65.70;;;;;;5071900;28;20035;-48
2022/07/01 05:03:49;;;;;;;3.53;3.05;;;21.90;65.90;;;;;;5070300;28;20141;-49
2022/07/01 05:06:16;;;;;;;4.75;2.72;;;21.90;65.50;;;;;;5065139;28;20028;-47
2022/07/01 05:08:42;;;;;;;3.42;2.22;;;21.90;65.10;;;;;;5066689;28;20045;-50
2022/07/01 05:11:08;;;;;;;3.05;2.50;;;21.90;65.40;;;;;;5070269;28;20028;-48
2022/07/01 05:13:34;;;;;;;3.15;2.60;;;21.90;65.50;;;;;;5067489;28;20040;-47
2022/07/01 05:16:00;;;;;;;2.63;2.40;;;21.90;65.40;;;;;;5067427;28;20114;-46
2022/07/01 05:23:56;;;;;;;2.38;2.08;;;21.90;65.00;;;;;;5066890;28;20969;-48
2022/07/01 05:26:25;;;;;;;2.72;2.25;;;21.90;64.40;;;;;;5070639;28;20037;-47
2022/07/01 05:28:53;;;;;;;2.65;2.30;;;21.90;64.50;;;;;;5066829;28;20052;-47
2022/07/01 05:31:19;;;;;;;2.53;2.30;;;21.90;64.50;;;;;;5068237;28;20041;-46
2022/07/01 05:33:45;;;;;;;1.70;1.60;;;21.90;64.60;;;;;;5072872;28;20036;-46
2022/07/01 05:36:11;;;;;;;2.30;1.73;;;21.90;64.40;;;;;;5070721;28;20046;-46
2022/07/01 05:38:37;;;;;;;2.35;2.03;;;21.90;64.30;;;;;;5076055;28;20052;-46
2022/07/01 05:41:03;;;;;;;1.67;1.58;;;21.90;64.30;;;;;;5076021;28;20051;-51
2022/07/01 05:43:30;;;;;;;2.80;2.28;;;21.90;64.20;;;;;;5078012;28;20044;-46
2022/07/01 05:45:56;;;;;;;2.28;2.03;;;21.90;63.90;;;;;;5059610;28;20081;-46
2022/07/01 05:48:22;;;;;;;1.88;1.67;;;22.00;63.70;;;;;;5075929;28;20099;-47
2022/07/01 05:50:49;;;;;;;2.53;1.92;;;22.00;64.00;;;;;;5073493;28;20028;-47
2022/07/01 05:53:15;;;;;;;3.10;1.65;;;21.90;64.10;;;;;;5072360;28;20083;-46
2022/07/01 05:55:42;;;;;;;1.73;1.63;;;21.90;64.00;;;;;;5074889;28;20097;-46
2022/07/01 05:58:10;;;;;;;1.63;1.52;;;21.90;64.00;;;;;;5075893;28;20036;-48
2022/07/01 06:00:36;;;;;;;2.53;1.80;;;21.90;64.10;;;;;;5075857;28;20478;-47
2022/07/01 06:03:02;;;;;;;2.17;1.67;;;21.90;64.10;;;;;;5075950;28;20024;-47
2022/07/01 06:05:29;;;;;;;1.70;1.40;;;21.90;64.00;;;;;;5077163;28;20081;-46
2022/07/01 06:07:55;;;;;;;;;;;21.90;63.60;;;;;;5078177;28;20032;-48
2022/07/01 06:10:21;;;;;;;1.63;1.48;;;22.00;63.50;;;;;;5076931;28;19917;-49
2022/07/01 06:12:48;;;;;;;2.20;1.95;;;21.90;63.80;;;;;;5072477;28;20043;-48
2022/07/01 06:15:14;;;;;;;1.52;1.42;;;21.90;64.00;;;;;;5076844;28;20123;-47
2022/07/01 06:17:41;;;;;;;1.40;1.30;;;21.90;63.90;;;;;;5074867;28;20743;-46
2022/07/01 06:20:07;;;;;;;1.48;1.23;;;21.90;64.10;;;;;;5076540;28;20090;-47
2022/07/01 06:22:34;;;;;;;1.65;1.55;;;21.90;64.10;;;;;;5076619;28;20033;-46
2022/07/01 06:25:00;;;;;;;1.70;1.60;;;21.90;64.20;;;;;;5077927;28;20031;-47
2022/07/01 06:27:27;;;;;;;1.50;1.40;;;22.00;64.00;;;;;;5078043;28;20500;-46
2022/07/01 06:29:53;;;;;;;2.00;1.55;;;22.00;63.50;;;;;;5076641;28;20091;-47
2022/07/01 06:32:19;;;;;;;1.60;1.50;;;22.00;64.10;;;;;;5076264;28;20040;-46
2022/07/01 06:34:45;;;;;;;1.42;1.33;;;22.00;64.30;;;;;;5076875;28;20021;-48
2022/07/01 06:37:12;;;;;;;2.13;1.20;;;22.00;64.30;;;;;;5075446;28;20031;-46
2022/07/01 06:39:38;;;;;;;1.58;1.48;;;22.00;64.40;;;;;;5076193;28;20089;-47
2022/07/01 06:42:04;;;;;;;1.48;1.27;;;22.00;64.40;;;;;;5077573;28;20021;-46
2022/07/01 06:44:30;;;;;;;1.10;1.00;;;22.00;64.50;;;;;;5077141;28;20028;-47
2022/07/01 06:46:56;;;;;;;1.40;1.30;;;22.00;64.60;;;;;;5072863;28;20594;-45
2022/07/01 06:49:22;;;;;;;1.08;1.00;;;22.00;64.90;;;;;;5076412;28;20059;-46
2022/07/01 06:51:49;;;;;;;1.33;1.23;;;22.00;64.40;;;;;;5075872;28;20059;-45
2022/07/01 06:54:17;;;;;;;2.40;1.20;;;22.00;63.80;;;;;;5076795;28;20060;-46
2022/07/01 06:56:43;;;;;;;1.40;1.30;;;22.00;64.60;;;;;;5072128;28;20035;-46
2022/07/01 06:59:10;;;;;;;1.30;1.20;;;22.00;64.70;;;;;;5068814;28;20028;-46
2022/07/01 07:01:36;;;;;;;1.10;1.00;;;22.00;64.60;;;;;;5067412;28;20021;-48
2022/07/01 07:04:02;;;;;;;1.50;1.40;;;22.00;64.50;;;;;;5069213;28;20058;-46
2022/07/01 07:06:29;;;;;;;1.15;1.05;;;22.00;64.50;;;;;;5070012;28;20513;-48
2022/07/01 07:08:55;;;;;;;1.27;1.15;;;22.00;64.60;;;;;;5069127;28;20032;-48
2022/07/01 07:11:21;;;;;;;1.20;1.10;;;22.00;64.60;;;;;;5070655;28;20692;-46
2022/07/01 07:13:47;;;;;;;0.88;0.88;;;22.00;64.60;;;;;;5072554;28;20051;-47
2022/07/01 07:16:13;;;;;;;1.00;0.80;;;22.00;63.80;;;;;;5070932;28;20055;-47
2022/07/01 07:18:39;;;;;;;1.00;0.90;;;22.10;63.20;;;;;;5068979;28;20092;-45
2022/07/01 07:21:06;;;;;;;1.20;1.10;;;22.00;63.90;;;;;;5072684;28;20029;-48
2022/07/01 07:23:32;;;;;;;1.30;1.20;;;22.00;63.90;;;;;;5073554;28;20068;-46
2022/07/01 07:25:58;;;;;;;1.98;1.08;;;22.10;63.80;;;;;;5074972;28;21406;-45
2022/07/01 07:28:24;;;;;;;1.25;1.15;;;22.10;63.80;;;;;;5077234;28;20085;-45
2022/07/01 07:30:50;;;;;;;1.15;0.98;;;22.00;63.80;;;;;;5080041;28;20039;-48
2022/07/01 07:33:16;;;;;;;1.20;1.10;;;22.00;63.80;;;;;;5077960;28;20036;-46
2022/07/01 07:35:43;;;;;;;1.17;1.00;;;22.00;63.80;;;;;;5081594;28;20051;-49
2022/07/01 07:38:10;;;;;;;0.93;0.90;;;22.10;63.50;;;;;;5083574;28;20035;-46
2022/07/01 07:40:36;;;;;;;1.20;1.10;;;22.00;62.80;;;;;;5081531;28;20103;-48
2022/07/01 07:43:03;;;;;;;0.90;0.90;;;22.00;62.50;;;;;;5083232;28;20516;-46
2022/07/01 07:45:29;;;;;;;;;;;22.10;63.20;;;;;;5085730;28;21244;-47
2022/07/01 07:47:55;;;;;;;1.50;1.20;;;22.00;63.00;;;;;;5083471;28;19916;-47
2022/07/01 07:50:22;;;;;;;1.33;0.90;;;22.00;63.10;;;;;;5082199;28;20050;-49
2022/07/01 07:52:48;;;;;;;1.35;1.00;;;22.00;63.80;;;;;;5083817;28;20125;-51
2022/07/01 07:55:14;;;;;;;0.80;0.80;;;22.00;63.10;;;;;;5081910;28;20029;-47
2022/07/01 07:57:41;;;;;;;0.90;0.82;;;22.00;62.70;;;;;;5083983;28;20028;-56
2022/07/01 08:00:08;;;;;;;1.88;0.90;;;22.00;62.50;;;;;;5079682;28;20032;-50
2022/07/01 08:02:34;;;;;;;3.90;0.90;;;22.00;62.20;;;;;;5104396;28;20039;-48
2022/07/01 08:05:01;;;;;;;4.65;1.10;;;22.00;61.80;;;;;;5072163;28;20021;-46
2022/07/01 08:07:27;;;;;;;1.13;0.90;;;22.00;61.80;;;;;;5073022;28;20033;-50
2022/07/01 08:09:53;;;;;;;1.27;1.08;;;22.00;61.80;;;;;;5069921;28;20055;-47
2022/07/01 08:12:19;;;;;;;0.90;0.90;;;22.00;61.80;;;;;;5071402;28;20041;-46
2022/07/01 08:14:45;;;;;;;1.27;0.80;;;22.00;61.90;;;;;;5072557;28;20041;-45
2022/07/01 08:17:11;;;;;;;1.35;1.10;;;22.00;61.90;;;;;;5068925;28;20035;-47
2022/07/01 08:19:37;;;;;;;0.93;0.90;;;22.00;61.90;;;;;;5072037;28;20057;-46
2022/07/01 08:22:03;;;;;;;2.20;0.95;;;22.00;61.80;;;;;;5075178;28;20081;-49
2022/07/01 08:24:30;;;;;;;1.08;0.95;;;21.90;61.30;;;;;;5073898;28;20033;-47
2022/07/01 08:26:56;;;;;;;3.85;1.00;;;22.00;61.30;;;;;;5079123;28;20043;-46
2022/07/01 08:29:22;;;;;;;0.75;0.75;;;22.00;61.30;;;;;;5070386;28;20048;-48
2022/07/01 08:31:48;;;;;;;1.38;0.90;;;21.90;61.30;;;;;;5076722;28;20021;-51
2022/07/01 08:34:15;;;;;;;0.80;0.80;;;22.00;61.50;;;;;;5081772;28;20102;-46
2022/07/01 08:36:41;;;;;;;1.45;0.90;;;21.90;61.50;;;;;;5082951;28;20020;-47
2022/07/01 08:39:07;;;;;;;1.17;0.80;;;21.90;61.50;;;;;;5085694;28;20147;-46
2022/07/01 08:41:33;;;;;;;1.10;0.90;;;22.00;61.70;;;;;;5083097;28;20033;-47
2022/07/01 08:44:00;;;;;;;0.75;0.73;;;22.00;61.70;;;;;;5082237;28;20055;-49
2022/07/01 08:46:27;;;;;;;1.13;0.90;;;22.00;61.80;;;;;;5084012;28;20056;-48
2022/07/01 08:51:45;;;;;;;0.75;0.73;;;21.90;61.20;;;;;;5063345;28;20037;-47
2022/07/01 08:54:11;;;;;;;0.93;0.90;;;22.00;61.20;;;;;;5082811;28;20070;-50
2022/07/01 08:56:46;;;;;;;0.75;0.75;;;22.00;61.20;;;;;;5081796;28;20033;-48
2022/07/01 08:59:13;;;;;;;0.70;0.70;;;22.00;61.30;;;;;;5083149;28;20036;-50
2022/07/01 09:01:39;;;;;;;2.65;0.70;;;22.00;61.40;;;;;;5083632;28;20025;-50
2022/07/01 09:04:18;;;;;;;0.70;0.70;;;22.00;61.40;;;;;;5079211;28;20036;-47
2022/07/01 09:06:45;;;;;;;0.70;0.70;;;22.00;61.50;;;;;;5075037;28;20846;-50
2022/07/01 09:09:16;;;;;;;0.80;0.80;;;22.00;61.60;;;;;;5066867;28;20013;-47
2022/07/01 09:11:55;;;;;;;0.80;0.80;;;21.90;61.60;;;;;;5064686;28;20092;-46
2022/07/01 09:14:27;;;;;;;0.63;0.63;;;21.90;61.70;;;;;;5083165;28;20039;-47
2022/07/01 09:16:55;;;;;;;0.73;0.70;;;22.00;62.00;;;;;;5082576;28;20030;-46
2022/07/01 09:19:21;;;;;;;;;;;21.90;61.70;;;;;;5062980;28;20013;-46
2022/07/01 09:21:56;;;;;;;0.65;0.65;;;21.90;61.40;;;;;;5074331;28;19912;-48
2022/07/01 09:24:36;;;;;;;0.80;0.80;;;21.90;61.20;;;;;;5081798;28;20140;-46
2022/07/01 09:27:11;;;;;;;0.77;0.77;;;21.90;61.20;;;;;;5081662;28;20033;-48
2022/07/01 09:29:44;;;;;;;0.70;0.70;;;21.90;61.20;;;;;;5083193;28;20032;-47
2022/07/01 09:32:12;;;;;;;0.73;0.70;;;21.90;61.30;;;;;;5089986;28;20572;-46
2022/07/01 09:34:44;;;;;;;0.95;0.77;;;21.90;61.40;;;;;;5081908;28;20063;-48
2022/07/01 09:37:14;;;;;;;0.85;0.70;;;21.90;61.40;;;;;;5082308;28;20123;-47
2022/07/01 09:39:44;;;;;;;0.65;0.60;;;21.90;61.50;;;;;;5085054;28;20052;-47
2022/07/01 09:42:10;;;;;;;0.80;0.80;;;21.90;61.50;;;;;;5082531;28;20037;-47
2022/07/01 09:44:52;;;;;;;0.93;0.70;;;21.90;61.60;;;;;;5080997;28;20032;-46
2022/07/01 09:47:21;;;;;;;0.60;0.60;;;21.90;61.80;;;;;;5080731;28;20055;-51
2022/07/01 09:49:47;;;;;;;0.70;0.68;;;21.90;62.00;;;;;;5081125;28;20020;-47
2022/07/01 09:52:13;;;;;;;0.80;0.80;;;21.90;61.70;;;;;;5081910;28;20043;-46
2022/07/01 09:54:39;;;;;;;0.82;0.80;;;21.90;61.40;;;;;;5101840;28;20028;-49
2022/07/01 09:57:05;;;;;;;1.42;0.77;;;21.90;61.20;;;;;;5079090;28;20100;-46
2022/07/01 09:59:32;;;;;;;1.00;0.80;;;21.90;61.30;;;;;;5098889;28;20032;-48
2022/07/01 10:01:58;;;;;;;2.28;1.15;;;21.90;61.30;;;;;;5093816;28;20779;-47
2022/07/01 10:04:24;;;;;;;1.60;0.95;;;21.90;61.40;;;;;;5080338;28;20067;-47
2022/07/01 10:07:21;;;;;;;1.00;0.80;;;21.90;61.50;;;;;;5080638;28;20028;-47
2022/07/01 10:10:42;;;;;;;1.33;0.90;;;21.90;61.50;;;;;;5098434;28;20051;-47
2022/07/01 10:13:08;;;;;;;1.52;0.82;;;21.90;61.60;;;;;;5016554;28;20041;-47
2022/07/01 10:15:35;;;;;;;1.80;0.90;;;21.90;61.70;;;;;;5005762;28;20068;-49
2022/07/01 10:18:01;;;;;;;1.88;0.90;;;21.90;61.70;;;;;;4999285;28;20082;-48
2022/07/01 10:20:28;;;;;;;1.63;0.90;;;21.90;62.10;;;;;;5000159;28;20038;-45
2022/07/01 10:23:05;;;;;;;1.80;0.82;;;21.90;61.80;;;;;;4993160;28;20159;-47
2022/07/01 10:25:42;;;;;;;1.65;0.80;;;21.90;61.50;;;;;;4992939;28;20041;-47
2022/07/01 10:28:18;;;;;;;2.50;0.82;;;21.90;61.30;;;;;;4977037;28;20050;-47
2022/07/01 10:30:55;;;;;;;1.50;0.90;;;21.90;62.10;;;;;;4993191;28;20058;-46
2022/07/01 10:33:46;;;;;;;2.58;1.02;;;21.90;61.40;;;;;;4978198;28;20056;-47
2022/07/01 10:36:22;;;;;;;1.27;1.00;;;21.90;61.40;;;;;;4993099;28;20070;-49
2022/07/01 10:39:01;;;;;;;1.70;0.90;;;21.90;61.50;;;;;;4993293;28;20060;-48
2022/07/01 10:41:34;;;;;;;1.98;1.00;;;21.90;61.50;;;;;;4992906;28;20044;-46
2022/07/01 10:44:06;;;;;;;4.20;0.98;;;21.90;61.50;;;;;;4993348;28;20050;-47
2022/07/01 10:46:56;;;;;;;2.25;1.02;;;21.90;61.50;;;;;;5008812;28;20076;-46
2022/07/01 10:49:40;;;;;;;1.35;0.90;;;21.90;62.00;;;;;;5066868;28;20032;-48
2022/07/01 10:52:06;;;;;;;2.10;1.10;;;21.90;61.60;;;;;;5062803;28;20029;-47
2022/07/01 10:54:39;;;;;;;1.50;1.00;;;21.90;61.30;;;;;;5078526;28;20028;-47
2022/07/01 10:57:20;;;;;;;1.00;0.90;;;21.90;61.20;;;;;;5082230;28;20025;-51
2022/07/01 11:00:16;;;;;;;1.00;0.90;;;21.90;61.20;;;;;;5083466;28;20036;-48
2022/07/01 11:02:42;;;;;;;1.30;1.05;;;21.90;61.20;;;;;;5065979;28;20020;-51
2022/07/01 11:05:10;;;;;;;1.40;1.10;;;21.80;61.10;;;;;;5078431;28;20035;-47
2022/07/01 11:07:38;;;;;;;1.52;1.10;;;21.90;61.30;;;;;;5068586;28;20088;-48
2022/07/01 11:10:07;;;;;;;1.73;1.10;;;21.90;61.40;;;;;;5062314;28;20021;-47
2022/07/01 11:12:33;;;;;;;1.10;0.82;;;21.90;61.40;;;;;;5073209;28;20549;-51
2022/07/01 11:15:01;;;;;;;0.95;0.90;;;21.90;61.40;;;;;;5080580;28;20171;-51
2022/07/01 11:17:27;;;;;;;1.25;0.80;;;21.90;61.50;;;;;;5078907;28;20023;-48
2022/07/01 11:19:57;;;;;;;1.43;1.00;;;21.90;61.40;;;;;;5087762;28;20035;-48
2022/07/01 11:22:25;;;;;;;1.00;0.90;;;21.90;61.50;;;;;;5082566;28;20037;-51
2022/07/01 11:24:59;;;;;;;1.15;0.75;;;21.90;61.50;;;;;;5075764;28;20028;-50
2022/07/01 11:27:26;;;;;;;1.10;0.68;;;21.90;61.50;;;;;;5086631;28;20020;-49
2022/07/01 11:29:52;;;;;;;2.67;0.70;;;21.90;61.50;;;;;;5081219;28;20493;-51
2022/07/01 11:32:26;;;;;;;2.35;1.08;;;21.90;61.50;;;;;;5075587;28;20675;-47
2022/07/01 11:34:52;;;;;;;1.40;0.90;;;21.90;61.50;;;;;;5077798;28;20057;-49
2022/07/01 11:40:10;;;;;;;1.48;0.90;;;21.90;61.90;;;;;;5074073;28;20492;-50
2022/07/01 11:42:36;;;;;;;141.75;28.40;;;21.90;61.40;;;;;;5080428;28;20128;-50
2022/07/01 11:45:03;;;;;;;130.30;25.13;;;21.90;61.40;;;;;;5080047;28;20036;-46
2022/07/01 11:47:29;;;;;;;99.53;20.98;;;21.90;61.40;;;;;;5081332;28;20556;-46
2022/07/01 11:49:55;;;;;;;101.72;22.25;;;21.90;61.40;;;;;;5079648;28;20028;-47
2022/07/01 11:52:21;;;;;;;120.60;25.45;;;21.90;61.30;;;;;;5086719;28;20175;-45
2022/07/01 11:54:52;;;;;;;126.68;26.63;;;21.90;61.30;;;;;;5066296;28;20053;-51
2022/07/01 11:57:22;;;;;;;106.68;23.45;;;21.90;61.30;;;;;;5080303;28;20020;-50
2022/07/01 11:59:49;;;;;;;73.30;17.58;;;21.90;61.40;;;;;;5086427;28;20086;-48
2022/07/01 12:02:16;;;;;;;63.38;15.10;;;21.90;61.50;;;;;;5069139;28;20099;-48
2022/07/01 12:04:43;;;;;;;74.22;15.88;;;21.90;61.70;;;;;;5076361;28;20493;-45
2022/07/01 12:07:10;;;;;;;50.22;13.00;;;21.90;61.80;;;;;;5081212;28;20055;-46
2022/07/01 12:09:37;;;;;;;34.85;9.30;;;21.90;62.00;;;;;;5091158;28;20088;-45
2022/07/01 12:12:03;;;;;;;31.67;7.63;;;21.90;61.50;;;;;;5066938;28;21801;-49
2022/07/01 12:14:34;;;;;;;20.45;6.13;;;21.90;61.10;;;;;;5097690;28;20306;-45
2022/07/01 12:17:05;;;;;;;22.13;5.60;;;21.90;61.30;;;;;;5078254;28;20032;-44
2022/07/01 12:19:46;;;;;;;21.42;5.80;;;21.90;61.80;;;;;;5089761;28;20028;-43
2022/07/01 12:22:19;;;;;;;15.60;4.68;;;21.90;62.20;;;;;;5085845;28;20040;-44
2022/07/01 12:24:46;;;;;;;14.20;4.22;;;21.90;62.30;;;;;;5083888;28;20535;-44
2022/07/01 12:27:13;;;;;;;17.20;4.28;;;21.90;62.40;;;;;;5091244;28;20040;-43
2022/07/01 12:29:48;;;;;;;10.52;3.67;;;22.00;62.40;;;;;;5084866;28;20024;-46
2022/07/01 12:32:18;;;;;;;5.25;2.40;;;21.90;61.90;;;;;;5099651;28;20058;-44
2022/07/01 12:34:48;;;;;;;5.28;2.13;;;22.00;61.00;;;;;;5071399;28;20029;-45
2022/07/01 12:37:16;;;;;;;9.10;3.05;;;22.00;60.30;;;;;;5067816;28;20561;-44
2022/07/01 12:40:06;;;;;;;8.13;2.88;;;21.90;60.80;;;;;;5064752;28;20088;-45
2022/07/01 12:42:34;;;;;;;8.60;2.90;;;22.00;61.40;;;;;;5082719;28;20055;-47
2022/07/01 12:45:05;;;;;;;8.73;2.78;;;22.00;61.80;;;;;;5087188;28;20029;-43
2022/07/01 12:47:39;;;;;;;6.78;2.50;;;21.90;62.60;;;;;;5090959;28;20035;-44
2022/07/01 12:50:17;;;;;;;5.50;2.47;;;22.00;62.00;;;;;;5085853;28;20026;-44
2022/07/01 12:52:55;;;;;;;3.67;1.88;;;21.90;61.90;;;;;;5080673;28;20104;-49
2022/07/01 12:55:22;;;;;;;3.33;1.70;;;21.90;61.40;;;;;;5088410;28;20071;-45
2022/07/01 12:57:52;;;;;;;3.85;1.80;;;21.90;60.40;;;;;;5083998;28;20028;-47
2022/07/01 13:00:19;;;;;;;4.63;1.83;;;22.00;60.30;;;;;;5093247;28;20033;-44
2022/07/01 13:02:45;;;;;;;4.47;2.15;;;22.00;61.00;;;;;;5070481;28;20071;-44